• Join FlightAware (Why Join?)
  • Login
  • US Flag 
12:42PM EDT


 

Airport Tracker/Info


-or-


 

Live Flight TrackerFlight Track Log ✈ KAP190 ✈ 06-Jul-2011 ✈ KMSS - KALB

Flight Track Log - Related Links

Times and Time Zones

All times are in EDT time to prevent confusion due to time zone crossing. See the KAP190 flight status page for this flight to view local times or setup timezone preferences in your user account.

Time Position Orientation Groundspeed Altitude Reporting Facility
EDT Latitude Longitude Course Direction KTS MPH feet Rate Location/Type
07:41AM 44.9013 -74.8213 235° Southwest  Level FlightAware Approximate
07:49AM 44.5828 -74.6677 322° Northwest  Level FlightAware Approximate
07:51AM 44.8383 -74.9461 155° Southeast 144 166 5,000  Level Boston Center
07:52AM 44.8056 -74.9242 156° South 102 117 5,300 360 Climbing Boston Center
07:53AM 44.7706 -74.9022 149° Southeast 117 135 5,800 480 Climbing Boston Center
07:54AM 44.7378 -74.8744 163° South 135 155 6,300 480 Climbing Boston Center
07:55AM 44.7067 -74.8614 156° South 130 150 6,800 360 Climbing Boston Center
07:56AM 44.6719 -74.8397 161° South 130 150 7,100 120 Climbing Boston Center
07:57AM 44.6325 -74.8206 162° South 143 165 7,100  Level Boston Center
07:58AM 44.5892 -74.8011 159° South 151 174 7,100  Level Boston Center
07:59AM 44.5439 -74.7761 159° South 164 189 7,100  Level Boston Center
08:00AM 44.4986 -74.7511 155° Southeast 169 194 7,100  Level Boston Center
08:01AM 44.4553 -74.7231 159° South 169 194 7,100  Level Boston Center
08:02AM 44.4081 -74.6981 159° South 169 194 7,100  Level Boston Center
08:03AM 44.3667 -74.6761 154° Southeast 169 194 7,100  Level Boston Center
08:04AM 44.3214 -74.6456 161° South 169 194 7,100  Level Boston Center
08:05AM 44.2761 -74.6236 158° South 169 194 7,100  Level Boston Center
08:06AM 44.2328 -74.5986 158° South 169 194 7,100  Level Boston Center
08:07AM 44.1894 -74.5739 159° South 169 194 7,100  Level Boston Center
08:08AM 44.1442 -74.5492 157° South 169 194 7,100  Level Boston Center
08:09AM 44.0986 -74.5217 157° South 169 194 7,100  Level Boston Center
08:10AM 44.0514 -74.4939 160° South 174 200 7,100  Level Boston Center
08:11AM 44.0017 -74.4692 159° South 174 200 7,100  Level Boston Center
08:12AM 43.9564 -74.4444 160° South 174 200 7,100  Level Boston Center
08:13AM 43.9089 -74.4200 156° South 174 200 7,100  Level Boston Center
08:14AM 43.8633 -74.3925 159° South 179 206 7,100  Level Boston Center
08:15AM 43.8181 -74.3681 159° South 179 206 7,100  Level Boston Center
08:16AM 43.7706 -74.3433 159° South 179 206 7,100  Level Boston Center
08:17AM 43.7250 -74.3189 158° South 179 206 7,100  Level Boston Center
08:18AM 43.6756 -74.2917 159° South 184 212 7,100  Level Boston Center
08:19AM 43.6300 -74.2672 160° South 184 212 7,100  Level Boston Center
08:20AM 43.5825 -74.2428 159° South 189 217 7,100  Level Boston Center
08:21AM 43.5369 -74.2186 159° South 189 217 7,100  Level Boston Center
08:22AM 43.4914 -74.1944 166° South 189 217 7,100  Level Boston Center
08:22AM 43.4728 -74.1881 151° Southeast 177 204 7,100  Level Boston Center
08:23AM 43.4461 -74.1675 168° South 189 217 7,100 -120 Level Boston Center
08:23AM 43.4233 -74.1611 154° Southeast 178 205 7,000  Descending Boston Center
08:24AM 43.4006 -74.1461 162° South 189 217 7,100 60 Climbing Boston Center
08:24AM 43.3797 -74.1369 154° Southeast 174 200 7,100  Level Boston Center
08:25AM 43.3572 -74.1219 169° South 189 217 7,100 -120 Level Boston Center
08:25AM 43.3342 -74.1158 154° Southeast 174 200 7,000  Descending Boston Center
08:26AM 43.3075 -74.0978 164° South 184 212 7,100 60 Climbing Boston Center
08:26AM 43.2847 -74.0886 157° South 173 199 7,100  Level Boston Center
08:27AM 43.2639 -74.0767 169° South 184 212 7,100  Level Boston Center
08:27AM 43.2392 -74.0703 153° Southeast 175 201 7,100 -120 Level Boston Center
08:28AM 43.2142 -74.0525 159° South 184 212 7,000 -120 Descending Boston Center
08:28AM 43.1917 -74.0406 143° Southeast 175 201 7,000  Level Boston Center
08:29AM 43.1772 -74.0258 154° Southeast 179 206 7,000 -540 Level Boston Center
08:29AM 43.1503 -74.0081 149° Southeast 182 209 6,500 -840 Descending Boston Center
08:30AM 43.1256 -73.9875 156° South 184 212 6,200 -840 Descending Boston Center
08:30AM 43.0967 -73.9697 144° Southeast 193 222 5,700 -840 Descending Boston Center
08:31AM 43.0822 -73.9553 155° Southeast 195 224 5,400 -720 Descending Boston Center
08:31AM 43.0492 -73.9344 150° Southeast 194 223 5,000 -600 Descending Boston Center
08:32AM 43.0306 -73.9200 159° South 195 224 4,800 -600 Descending Boston Center
08:32AM 43.0017 -73.9050 159° South 192 221 4,400 -600 Descending Boston Center
08:33AM 42.9850 -73.8961 159° South 195 224 4,200 -900 Descending Boston Center
08:33AM 42.9519 -73.8783 152° Southeast 193 222 3,500 -1,020 Descending Boston Center
08:34AM 42.9314 -73.8636 132° Southeast 195 224 3,200 -840 Descending Boston Center
08:34AM 42.9108 -73.8319 150° Southeast 189 217 2,700 -840 Descending Boston Center
08:35AM 42.8922 -73.8172 175° South 190 219 2,400 -540 Descending Boston Center
08:35AM 42.8631 -73.8139 128° Southeast 171 197 2,200 -240 Descending Boston Center
08:36AM 42.8467 -73.7853 221° Southwest 184 212 2,200 -540 Level Boston Center
08:36AM 42.8256 -73.8103 179° South 140 161 1,700 -840 Descending Boston Center
08:37AM 42.7881 -73.8094 179° South 131 151 900 -840 Descending Boston Center